Time,TemperatureF,DewpointF,PressureIn,WindDirection,WindDirectionDegrees,WindSpeedMPH,WindSpeedGustMPH,Humidity,HourlyPrecipIn,Conditions,Clouds,dailyrainin,SoftwareType,DateUTC
2013-03-12 00:04:00,50.5,34.0,30.08,WSW,256,0.0,1.0,53,0.00,,---,0.00,VWS V14.01,2013-03-12 07:04:00,
2013-03-12 00:09:00,50.7,34.2,30.08,South,191,0.0,1.0,53,0.00,,---,0.00,VWS V14.01,2013-03-12 07:09:00,
2013-03-12 00:14:00,49.8,33.8,30.08,West,276,0.0,2.0,54,0.00,,---,0.00,VWS V14.01,2013-03-12 07:14:00,
2013-03-12 00:19:00,49.6,33.7,30.08,West,276,1.0,2.0,54,0.00,,---,0.00,VWS V14.01,2013-03-12 07:19:00,
2013-03-12 00:24:00,49.6,33.7,30.08,SSE,150,1.0,2.0,54,0.00,,---,0.00,VWS V14.01,2013-03-12 07:24:00,
2013-03-12 00:29:00,49.7,33.8,30.08,South,172,2.0,2.0,54,0.00,,---,0.00,VWS V14.01,2013-03-12 07:29:00,
2013-03-12 00:34:00,49.1,32.7,30.08,SSE,162,0.0,2.0,53,0.00,,---,0.00,VWS V14.01,2013-03-12 07:34:00,
2013-03-12 00:39:00,48.7,32.3,30.08,SSE,163,0.0,2.0,53,0.00,,---,0.00,VWS V14.01,2013-03-12 07:39:00,
2013-03-12 00:44:00,48.5,30.7,30.07,SSE,162,1.0,2.0,50,0.00,,---,0.00,VWS V14.01,2013-03-12 07:44:00,
2013-03-12 00:50:00,48.9,30.6,30.07,SSW,204,2.0,3.0,49,0.00,,---,0.00,VWS V14.01,2013-03-12 07:50:00,
2013-03-12 00:55:00,49.1,31.3,30.07,SSE,166,1.0,3.0,50,0.00,,---,0.00,VWS V14.01,2013-03-12 07:55:00,
2013-03-12 01:00:00,49.0,30.7,30.07,SSE,159,1.0,1.0,49,0.00,,---,0.00,VWS V14.01,2013-03-12 08:00:00,
2013-03-12 01:05:00,49.1,30.8,30.07,SSE,164,2.0,2.0,49,0.00,,---,0.00,VWS V14.01,2013-03-12 08:05:00,
2013-03-12 01:10:00,49.4,31.1,30.07,SSE,165,1.0,2.0,49,0.00,,---,0.00,VWS V14.01,2013-03-12 08:10:00,
2013-03-12 01:15:00,49.5,31.1,30.07,SSE,162,2.0,3.0,49,0.00,,---,0.00,VWS V14.01,2013-03-12 08:15:00,
2013-03-12 01:20:00,49.9,30.5,30.07,SSE,150,1.0,3.0,47,0.00,,---,0.00,VWS V14.01,2013-03-12 08:20:00,
2013-03-12 01:25:00,50.1,30.1,30.07,South,181,1.0,3.0,46,0.00,,---,0.00,VWS V14.01,2013-03-12 08:25:00,
2013-03-12 01:30:00,50.5,29.4,30.08,SE,135,1.0,3.0,44,0.00,,---,0.00,VWS V14.01,2013-03-12 08:30:00,
2013-03-12 01:35:00,51.1,30.0,30.08,SSE,152,2.0,3.0,44,0.00,,---,0.00,VWS V14.01,2013-03-12 08:35:00,
2013-03-12 01:41:00,51.4,29.7,30.08,SSE,152,0.0,3.0,43,0.00,,---,0.00,VWS V14.01,2013-03-12 08:41:00,
2013-03-12 01:46:00,51.5,30.3,30.07,SE,134,0.0,3.0,44,0.00,,---,0.00,VWS V14.01,2013-03-12 08:46:00,
2013-03-12 01:51:00,49.5,31.6,30.08,NNE,22,2.0,4.0,50,0.00,,---,0.00,VWS V14.01,2013-03-12 08:51:00,
2013-03-12 01:56:00,48.1,31.8,30.08,NNE,13,1.0,4.0,53,0.00,,---,0.00,VWS V14.01,2013-03-12 08:56:00,
2013-03-12 02:01:00,47.4,32.1,30.08,NNE,13,0.0,0.0,55,0.00,,---,0.00,VWS V14.01,2013-03-12 09:01:00,
2013-03-12 02:06:00,47.3,32.4,30.08,NNE,13,0.0,0.0,56,0.00,,---,0.00,VWS V14.01,2013-03-12 09:06:00,
2013-03-12 02:11:00,47.2,32.3,30.08,NNE,13,0.0,0.0,56,0.00,,---,0.00,VWS V14.01,2013-03-12 09:11:00,
2013-03-12 02:17:00,46.8,32.4,30.08,West,281,0.0,0.0,57,0.00,,---,0.00,VWS V14.01,2013-03-12 09:17:00,
2013-03-12 02:22:00,46.5,31.7,30.08,WSW,240,0.0,0.0,56,0.00,,---,0.00,VWS V14.01,2013-03-12 09:22:00,
2013-03-12 02:27:00,46.0,31.6,30.08,WSW,240,0.0,0.0,57,0.00,,---,0.00,VWS V14.01,2013-03-12 09:27:00,
2013-03-12 02:32:00,45.9,32.0,30.08,WSW,240,0.0,0.0,58,0.00,,---,0.00,VWS V14.01,2013-03-12 09:32:00,
2013-03-12 02:37:00,46.1,32.2,30.08,WSW,240,0.0,0.0,58,0.00,,---,0.00,VWS V14.01,2013-03-12 09:37:00,
2013-03-12 02:43:00,45.7,31.4,30.08,SW,225,3.0,3.0,57,0.00,,---,0.00,VWS V14.01,2013-03-12 09:43:00,
2013-03-12 02:48:00,46.2,32.2,30.08,SW,225,2.0,3.0,58,0.00,,---,0.00,VWS V14.01,2013-03-12 09:48:00,
2013-03-12 02:53:00,46.2,31.8,30.08,SSW,211,2.0,3.0,57,0.00,,---,0.00,VWS V14.01,2013-03-12 09:53:00,
2013-03-12 02:58:00,46.8,32.8,30.08,SSW,200,2.0,3.0,58,0.00,,---,0.00,VWS V14.01,2013-03-12 09:58:00,
2013-03-12 03:03:00,47.3,32.8,30.08,SSW,207,2.0,3.0,57,0.00,,---,0.00,VWS V14.01,2013-03-12 10:03:00,
2013-03-12 03:08:00,48.0,33.1,30.07,SSW,200,1.0,3.0,56,0.00,,---,0.00,VWS V14.01,2013-03-12 10:08:00,
2013-03-12 03:13:00,48.7,32.8,30.07,SSW,198,1.0,3.0,54,0.00,,---,0.00,VWS V14.01,2013-03-12 10:13:00,
2013-03-12 03:18:00,48.7,31.9,30.07,South,183,1.0,3.0,52,0.00,,---,0.00,VWS V14.01,2013-03-12 10:18:00,
2013-03-12 03:24:00,48.2,31.4,30.07,SSE,164,3.0,3.0,52,0.00,,---,0.00,VWS V14.01,2013-03-12 10:24:00,
2013-03-12 03:29:00,47.2,31.0,30.07,SSE,165,1.0,3.0,53,0.00,,---,0.00,VWS V14.01,2013-03-12 10:29:00,
2013-03-12 03:34:00,46.4,31.1,30.07,SSE,165,0.0,3.0,55,0.00,,---,0.00,VWS V14.01,2013-03-12 10:34:00,
2013-03-12 03:39:00,46.3,31.0,30.06,SE,145,1.0,3.0,55,0.00,,---,0.00,VWS V14.01,2013-03-12 10:39:00,
2013-03-12 03:44:00,46.6,31.3,30.06,SE,145,2.0,3.0,55,0.00,,---,0.00,VWS V14.01,2013-03-12 10:44:00,
2013-03-12 03:49:00,46.7,31.4,30.06,SE,145,0.0,3.0,55,0.00,,---,0.00,VWS V14.01,2013-03-12 10:49:00,
2013-03-12 03:54:00,46.5,31.2,30.06,SE,145,0.0,3.0,55,0.00,,---,0.00,VWS V14.01,2013-03-12 10:54:00,
2013-03-12 03:59:00,46.3,31.0,30.06,SE,145,0.0,0.0,55,0.00,,---,0.00,VWS V14.01,2013-03-12 10:59:00,
2013-03-12 04:04:00,46.1,30.9,30.06,SE,145,0.0,0.0,55,0.00,,---,0.00,VWS V14.01,2013-03-12 11:04:00,
2013-03-12 04:09:00,45.6,30.8,30.07,SE,145,0.0,0.0,56,0.00,,---,0.00,VWS V14.01,2013-03-12 11:09:00,
2013-03-12 04:14:00,45.2,30.5,30.07,SE,145,0.0,0.0,56,0.00,,---,0.00,VWS V14.01,2013-03-12 11:14:00,
2013-03-12 04:19:00,44.7,30.4,30.07,SE,145,0.0,0.0,57,0.00,,---,0.00,VWS V14.01,2013-03-12 11:19:00,
2013-03-12 04:24:00,43.8,30.4,30.07,SE,145,0.0,0.0,59,0.00,,---,0.00,VWS V14.01,2013-03-12 11:24:00,
2013-03-12 04:30:00,44.0,29.8,30.07,SSW,208,1.0,2.0,57,0.00,,---,0.00,VWS V14.01,2013-03-12 11:30:00,
2013-03-12 04:35:00,44.3,30.0,30.07,SSW,208,0.0,2.0,57,0.00,,---,0.00,VWS V14.01,2013-03-12 11:35:00,
2013-03-12 04:40:00,44.2,29.1,30.07,SW,215,1.0,2.0,55,0.00,,---,0.00,VWS V14.01,2013-03-12 11:40:00,
2013-03-12 04:45:00,43.9,29.2,30.07,SW,215,0.0,2.0,56,0.00,,---,0.00,VWS V14.01,2013-03-12 11:45:00,
2013-03-12 04:50:00,43.9,29.2,30.07,SW,215,0.0,2.0,56,0.00,,---,0.00,VWS V14.01,2013-03-12 11:50:00,
2013-03-12 04:55:00,43.7,29.5,30.07,SW,215,1.0,2.0,57,0.00,,---,0.00,VWS V14.01,2013-03-12 11:55:00,
2013-03-12 05:00:00,44.2,29.5,30.07,SW,215,1.0,1.0,56,0.00,,---,0.00,VWS V14.01,2013-03-12 12:00:00,
2013-03-12 05:06:00,44.3,29.2,30.07,SW,215,0.0,1.0,55,0.00,,---,0.00,VWS V14.01,2013-03-12 12:06:00,
2013-03-12 05:11:00,44.0,28.4,30.07,SW,215,0.0,1.0,54,0.00,,---,0.00,VWS V14.01,2013-03-12 12:11:00,
2013-03-12 05:16:00,44.0,28.4,30.07,SW,215,0.0,1.0,54,0.00,,---,0.00,VWS V14.01,2013-03-12 12:16:00,
2013-03-12 05:21:00,43.9,28.4,30.07,SW,215,0.0,1.0,54,0.00,,---,0.00,VWS V14.01,2013-03-12 12:21:00,
2013-03-12 05:26:00,43.2,29.4,30.07,SW,215,0.0,1.0,58,0.00,,---,0.00,VWS V14.01,2013-03-12 12:26:00,
2013-03-12 05:31:00,42.7,29.8,30.07,SW,215,0.0,1.0,60,0.00,,---,0.00,VWS V14.01,2013-03-12 12:31:00,
2013-03-12 05:36:00,42.3,30.2,30.08,SW,215,0.0,1.0,62,0.00,,---,0.00,VWS V14.01,2013-03-12 12:36:00,
2013-03-12 05:41:00,41.9,29.9,30.07,SW,216,0.0,1.0,62,0.00,,---,0.00,VWS V14.01,2013-03-12 12:41:00,
2013-03-12 05:46:00,41.6,30.0,30.08,SW,215,0.0,1.0,63,0.00,,---,0.00,VWS V14.01,2013-03-12 12:46:00,
2013-03-12 05:52:00,42.2,28.9,30.08,SW,215,0.0,1.0,59,0.00,,---,0.00,VWS V14.01,2013-03-12 12:52:00,
2013-03-12 05:57:00,42.9,28.7,30.07,SW,215,0.0,1.0,57,0.00,,---,0.00,VWS V14.01,2013-03-12 12:57:00,
2013-03-12 06:02:00,43.2,28.6,30.08,SW,215,0.0,0.0,56,0.00,,---,0.00,VWS V14.01,2013-03-12 13:02:00,
2013-03-12 06:07:00,43.1,28.5,30.08,SW,215,0.0,0.0,56,0.00,,---,0.00,VWS V14.01,2013-03-12 13:07:00,
2013-03-12 06:12:00,42.6,28.0,30.08,SW,215,0.0,0.0,56,0.00,,---,0.00,VWS V14.01,2013-03-12 13:12:00,
2013-03-12 06:17:00,41.9,27.8,30.08,SW,215,0.0,0.0,57,0.00,,---,0.00,VWS V14.01,2013-03-12 13:17:00,
2013-03-12 06:22:00,41.2,28.0,30.08,SW,215,0.0,0.0,59,0.00,,---,0.00,VWS V14.01,2013-03-12 13:22:00,
2013-03-12 06:28:00,40.5,28.1,30.08,SW,216,0.0,0.0,61,0.00,,---,0.00,VWS V14.01,2013-03-12 13:28:00,
2013-03-12 06:33:00,40.7,28.7,30.09,SW,215,0.0,0.0,62,0.00,,---,0.00,VWS V14.01,2013-03-12 13:33:00,
2013-03-12 06:38:00,40.7,29.1,30.09,SW,215,0.0,0.0,63,0.00,,---,0.00,VWS V14.01,2013-03-12 13:38:00,
2013-03-12 06:43:00,40.0,28.4,30.09,SW,215,0.0,0.0,63,0.00,,---,0.00,VWS V14.01,2013-03-12 13:43:00,
2013-03-12 06:48:00,40.1,28.5,30.09,SW,215,0.0,0.0,63,0.00,,---,0.00,VWS V14.01,2013-03-12 13:48:00,
2013-03-12 06:53:00,40.6,28.6,30.09,SW,215,0.0,0.0,62,0.00,,---,0.00,VWS V14.01,2013-03-12 13:53:00,
2013-03-12 06:58:00,40.8,28.4,30.09,SW,215,0.0,0.0,61,0.00,,---,0.00,VWS V14.01,2013-03-12 13:58:00,
2013-03-12 07:03:00,40.6,28.6,30.10,SW,215,0.0,0.0,62,0.00,,---,0.00,VWS V14.01,2013-03-12 14:03:00,
2013-03-12 07:08:00,40.6,29.0,30.10,SW,215,0.0,0.0,63,0.00,,---,0.00,VWS V14.01,2013-03-12 14:08:00,
2013-03-12 07:13:00,40.3,29.1,30.10,South,174,2.0,2.0,64,0.00,,---,0.00,VWS V14.01,2013-03-12 14:13:00,
2013-03-12 07:18:00,40.4,29.6,30.10,South,171,2.0,3.0,65,0.00,,---,0.00,VWS V14.01,2013-03-12 14:18:00,
2013-03-12 07:24:00,40.9,29.7,30.10,SSE,167,2.0,3.0,64,0.00,,---,0.00,VWS V14.01,2013-03-12 14:24:00,
2013-03-12 07:29:00,41.9,29.9,30.10,South,173,3.0,3.0,62,0.00,,---,0.00,VWS V14.01,2013-03-12 14:29:00,
2013-03-12 07:34:00,43.1,29.8,30.11,SSE,162,1.0,3.0,59,0.00,,---,0.00,VWS V14.01,2013-03-12 14:34:00,
2013-03-12 07:39:00,44.1,29.9,30.11,SSE,157,1.0,3.0,57,0.00,,---,0.00,VWS V14.01,2013-03-12 14:39:00,
2013-03-12 07:44:00,44.9,30.2,30.11,SSE,157,0.0,3.0,56,0.00,,---,0.00,VWS V14.01,2013-03-12 14:44:00,
2013-03-12 07:49:00,45.7,30.0,30.11,SSE,158,0.0,3.0,54,0.00,,---,0.00,VWS V14.01,2013-03-12 14:49:00,
2013-03-12 07:54:00,46.6,30.9,30.11,SE,132,0.0,3.0,54,0.00,,---,0.00,VWS V14.01,2013-03-12 14:54:00,
2013-03-12 08:00:00,46.7,30.5,30.12,SE,131,0.0,0.0,53,0.00,,---,0.00,VWS V14.01,2013-03-12 15:00:00,
2013-03-12 08:05:00,46.7,31.4,30.12,SE,131,0.0,0.0,55,0.00,,---,0.00,VWS V14.01,2013-03-12 15:05:00,
2013-03-12 08:10:00,47.1,31.8,30.12,SE,131,0.0,0.0,55,0.00,,---,0.00,VWS V14.01,2013-03-12 15:10:00,
2013-03-12 08:15:00,47.8,32.4,30.12,SE,131,0.0,0.0,55,0.00,,---,0.00,VWS V14.01,2013-03-12 15:15:00,
2013-03-12 08:20:00,49.0,32.2,30.12,SE,131,0.0,0.0,52,0.00,,---,0.00,VWS V14.01,2013-03-12 15:20:00,
2013-03-12 08:25:00,50.3,31.9,30.12,SE,131,0.0,0.0,49,0.00,,---,0.00,VWS V14.01,2013-03-12 15:25:00,
2013-03-12 08:30:00,51.2,30.6,30.13,SSE,149,0.0,0.0,45,0.00,,---,0.00,VWS V14.01,2013-03-12 15:30:00,
2013-03-12 08:35:00,51.8,30.6,30.13,ESE,111,0.0,0.0,44,0.00,,---,0.00,VWS V14.01,2013-03-12 15:35:00,
2013-03-12 08:40:00,52.7,30.9,30.13,ESE,117,0.0,0.0,43,0.00,,---,0.00,VWS V14.01,2013-03-12 15:40:00,
2013-03-12 08:45:00,52.8,29.2,30.13,ESE,115,0.0,1.0,40,0.00,,---,0.00,VWS V14.01,2013-03-12 15:45:00,
2013-03-12 08:51:00,53.2,28.9,30.14,ESE,117,0.0,1.0,39,0.00,,---,0.00,VWS V14.01,2013-03-12 15:51:00,
2013-03-12 08:56:00,53.9,29.5,30.14,ESE,117,0.0,1.0,39,0.00,,---,0.00,VWS V14.01,2013-03-12 15:56:00,
2013-03-12 09:01:00,54.4,28.0,30.14,East,82,0.0,0.0,36,0.00,,---,0.00,VWS V14.01,2013-03-12 16:01:00,
2013-03-12 09:06:00,54.1,29.1,30.14,North,3,0.0,0.0,38,0.00,,---,0.00,VWS V14.01,2013-03-12 16:06:00,
2013-03-12 09:11:00,53.8,28.2,30.14,North,10,0.0,1.0,37,0.00,,---,0.00,VWS V14.01,2013-03-12 16:11:00,
2013-03-12 09:16:00,53.8,28.8,30.14,NE,54,0.0,2.0,38,0.00,,---,0.00,VWS V14.01,2013-03-12 16:16:00,
2013-03-12 09:21:00,54.0,28.3,30.14,NNW,332,0.0,3.0,37,0.00,,---,0.00,VWS V14.01,2013-03-12 16:21:00,
2013-03-12 09:27:00,54.3,28.6,30.14,NW,321,0.0,3.0,37,0.00,,---,0.00,VWS V14.01,2013-03-12 16:27:00,
2013-03-12 09:32:00,54.5,28.1,30.14,NNW,332,0.0,3.0,36,0.00,,---,0.00,VWS V14.01,2013-03-12 16:32:00,
2013-03-12 09:37:00,54.7,29.0,30.14,NW,326,1.0,3.0,37,0.00,,---,0.00,VWS V14.01,2013-03-12 16:37:00,
2013-03-12 09:42:00,55.0,29.2,30.14,NW,317,2.0,3.0,37,0.00,,---,0.00,VWS V14.01,2013-03-12 16:42:00,
2013-03-12 09:47:00,55.2,28.0,30.14,NW,318,0.0,3.0,35,0.00,,---,0.00,VWS V14.01,2013-03-12 16:47:00,
2013-03-12 09:52:00,55.3,26.7,30.14,WSW,256,1.0,4.0,33,0.00,,---,0.00,VWS V14.01,2013-03-12 16:52:00,
2013-03-12 09:58:00,55.7,27.1,30.14,NW,309,2.0,4.0,33,0.00,,---,0.00,VWS V14.01,2013-03-12 16:58:00,